sensor_id;sensor_type;location;lat;lon;timestamp;P1;durP1;ratioP1;P2;durP2;ratioP2
3066;SDS011;1544;48.834;9.194;2023-12-14T00:00:18;1.50;;;1.40;;
3066;SDS011;1544;48.834;9.194;2023-12-14T00:02:54;2.70;;;1.70;;
3066;SDS011;1544;48.834;9.194;2023-12-14T00:05:30;2.03;;;1.83;;
3066;SDS011;1544;48.834;9.194;2023-12-14T00:08:06;2.07;;;1.70;;
3066;SDS011;1544;48.834;9.194;2023-12-14T00:10:42;4.50;;;2.03;;
3066;SDS011;1544;48.834;9.194;2023-12-14T00:13:18;2.07;;;1.87;;
3066;SDS011;1544;48.834;9.194;2023-12-14T00:15:54;2.20;;;2.10;;
3066;SDS011;1544;48.834;9.194;2023-12-14T00:18:30;5.03;;;1.50;;
3066;SDS011;1544;48.834;9.194;2023-12-14T00:21:06;1.97;;;1.87;;
3066;SDS011;1544;48.834;9.194;2023-12-14T00:23:42;2.90;;;2.57;;
3066;SDS011;1544;48.834;9.194;2023-12-14T00:26:18;2.40;;;1.70;;
3066;SDS011;1544;48.834;9.194;2023-12-14T00:28:54;3.10;;;1.83;;
3066;SDS011;1544;48.834;9.194;2023-12-14T00:31:36;2.13;;;2.00;;
3066;SDS011;1544;48.834;9.194;2023-12-14T00:34:12;3.73;;;1.70;;
3066;SDS011;1544;48.834;9.194;2023-12-14T00:36:48;2.00;;;1.80;;
3066;SDS011;1544;48.834;9.194;2023-12-14T00:39:24;2.30;;;1.80;;
3066;SDS011;1544;48.834;9.194;2023-12-14T00:42:00;1.90;;;1.80;;
3066;SDS011;1544;48.834;9.194;2023-12-14T00:44:36;1.93;;;1.83;;
3066;SDS011;1544;48.834;9.194;2023-12-14T00:47:12;2.67;;;2.17;;
3066;SDS011;1544;48.834;9.194;2023-12-14T00:49:48;2.37;;;2.17;;
3066;SDS011;1544;48.834;9.194;2023-12-14T00:52:24;2.90;;;2.53;;
3066;SDS011;1544;48.834;9.194;2023-12-14T00:55:00;2.20;;;2.00;;
3066;SDS011;1544;48.834;9.194;2023-12-14T00:57:36;2.07;;;1.90;;
3066;SDS011;1544;48.834;9.194;2023-12-14T01:00:12;2.57;;;2.37;;
3066;SDS011;1544;48.834;9.194;2023-12-14T01:02:49;5.90;;;2.00;;
3066;SDS011;1544;48.834;9.194;2023-12-14T01:05:25;2.50;;;1.90;;
3066;SDS011;1544;48.834;9.194;2023-12-14T01:08:01;2.87;;;2.00;;
3066;SDS011;1544;48.834;9.194;2023-12-14T01:10:37;1.77;;;1.60;;
3066;SDS011;1544;48.834;9.194;2023-12-14T01:13:13;1.97;;;1.87;;
3066;SDS011;1544;48.834;9.194;2023-12-14T01:15:49;1.90;;;1.80;;
3066;SDS011;1544;48.834;9.194;2023-12-14T01:18:25;2.40;;;2.20;;
3066;SDS011;1544;48.834;9.194;2023-12-14T01:21:01;2.03;;;1.80;;
3066;SDS011;1544;48.834;9.194;2023-12-14T01:23:38;2.43;;;1.70;;
3066;SDS011;1544;48.834;9.194;2023-12-14T01:26:14;2.53;;;1.50;;
3066;SDS011;1544;48.834;9.194;2023-12-14T01:28:50;1.63;;;1.30;;
3066;SDS011;1544;48.834;9.194;2023-12-14T01:31:26;5.20;;;1.67;;
3066;SDS011;1544;48.834;9.194;2023-12-14T01:34:02;1.50;;;1.40;;
3066;SDS011;1544;48.834;9.194;2023-12-14T01:36:38;2.57;;;1.53;;
3066;SDS011;1544;48.834;9.194;2023-12-14T01:39:13;3.17;;;1.57;;
3066;SDS011;1544;48.834;9.194;2023-12-14T01:41:49;2.07;;;1.40;;
3066;SDS011;1544;48.834;9.194;2023-12-14T01:44:25;2.93;;;1.70;;
3066;SDS011;1544;48.834;9.194;2023-12-14T01:47:01;1.90;;;1.80;;
3066;SDS011;1544;48.834;9.194;2023-12-14T01:49:37;2.90;;;2.10;;
3066;SDS011;1544;48.834;9.194;2023-12-14T01:52:14;2.27;;;1.60;;
3066;SDS011;1544;48.834;9.194;2023-12-14T01:54:50;1.90;;;1.63;;
3066;SDS011;1544;48.834;9.194;2023-12-14T01:57:26;2.10;;;1.90;;
3066;SDS011;1544;48.834;9.194;2023-12-14T02:00:02;3.43;;;1.70;;
3066;SDS011;1544;48.834;9.194;2023-12-14T02:02:39;2.00;;;1.80;;
3066;SDS011;1544;48.834;9.194;2023-12-14T02:05:15;2.00;;;1.80;;
3066;SDS011;1544;48.834;9.194;2023-12-14T02:07:52;3.00;;;1.90;;
3066;SDS011;1544;48.834;9.194;2023-12-14T02:10:28;4.67;;;1.80;;
3066;SDS011;1544;48.834;9.194;2023-12-14T02:13:04;1.70;;;1.60;;
3066;SDS011;1544;48.834;9.194;2023-12-14T02:15:40;2.33;;;1.60;;
3066;SDS011;1544;48.834;9.194;2023-12-14T02:18:16;2.50;;;2.00;;
3066;SDS011;1544;48.834;9.194;2023-12-14T02:20:52;1.77;;;1.67;;
3066;SDS011;1544;48.834;9.194;2023-12-14T02:23:28;1.77;;;1.57;;
3066;SDS011;1544;48.834;9.194;2023-12-14T02:26:03;1.53;;;1.43;;
3066;SDS011;1544;48.834;9.194;2023-12-14T02:28:40;5.23;;;2.03;;
3066;SDS011;1544;48.834;9.194;2023-12-14T02:31:17;2.10;;;2.00;;
3066;SDS011;1544;48.834;9.194;2023-12-14T02:33:54;2.60;;;1.87;;
3066;SDS011;1544;48.834;9.194;2023-12-14T02:36:30;2.40;;;2.20;;
3066;SDS011;1544;48.834;9.194;2023-12-14T02:39:06;3.63;;;2.00;;
3066;SDS011;1544;48.834;9.194;2023-12-14T02:41:42;2.13;;;1.80;;
3066;SDS011;1544;48.834;9.194;2023-12-14T02:44:18;5.13;;;2.23;;
3066;SDS011;1544;48.834;9.194;2023-12-14T02:46:54;3.10;;;2.53;;
3066;SDS011;1544;48.834;9.194;2023-12-14T02:49:30;3.53;;;2.03;;
3066;SDS011;1544;48.834;9.194;2023-12-14T02:52:06;2.40;;;1.97;;
3066;SDS011;1544;48.834;9.194;2023-12-14T02:54:42;2.30;;;2.10;;
3066;SDS011;1544;48.834;9.194;2023-12-14T02:57:18;2.67;;;1.87;;
3066;SDS011;1544;48.834;9.194;2023-12-14T02:59:54;2.20;;;2.00;;
3066;SDS011;1544;48.834;9.194;2023-12-14T03:02:30;1.80;;;1.70;;
3066;SDS011;1544;48.834;9.194;2023-12-14T03:05:06;1.90;;;1.60;;
3066;SDS011;1544;48.834;9.194;2023-12-14T03:07:45;1.80;;;1.50;;
3066;SDS011;1544;48.834;9.194;2023-12-14T03:10:21;1.47;;;1.37;;
3066;SDS011;1544;48.834;9.194;2023-12-14T03:12:57;1.43;;;1.33;;
3066;SDS011;1544;48.834;9.194;2023-12-14T03:15:33;2.03;;;1.60;;
3066;SDS011;1544;48.834;9.194;2023-12-14T03:18:09;6.97;;;1.90;;
3066;SDS011;1544;48.834;9.194;2023-12-14T03:20:47;2.20;;;1.70;;
3066;SDS011;1544;48.834;9.194;2023-12-14T03:23:23;2.00;;;1.90;;
3066;SDS011;1544;48.834;9.194;2023-12-14T03:25:59;1.60;;;1.50;;
3066;SDS011;1544;48.834;9.194;2023-12-14T03:28:35;2.13;;;1.60;;
3066;SDS011;1544;48.834;9.194;2023-12-14T03:31:11;2.20;;;1.67;;
3066;SDS011;1544;48.834;9.194;2023-12-14T03:33:48;2.00;;;1.80;;
3066;SDS011;1544;48.834;9.194;2023-12-14T03:36:24;2.07;;;1.90;;
3066;SDS011;1544;48.834;9.194;2023-12-14T03:39:01;2.13;;;1.93;;
3066;SDS011;1544;48.834;9.194;2023-12-14T03:41:37;2.00;;;1.83;;
3066;SDS011;1544;48.834;9.194;2023-12-14T03:44:13;1.80;;;1.70;;
3066;SDS011;1544;48.834;9.194;2023-12-14T03:46:50;3.40;;;2.00;;
3066;SDS011;1544;48.834;9.194;2023-12-14T03:49:26;2.13;;;1.80;;
3066;SDS011;1544;48.834;9.194;2023-12-14T03:52:02;2.10;;;1.90;;
3066;SDS011;1544;48.834;9.194;2023-12-14T03:54:38;2.70;;;2.03;;
3066;SDS011;1544;48.834;9.194;2023-12-14T03:57:14;2.10;;;1.60;;
3066;SDS011;1544;48.834;9.194;2023-12-14T03:59:50;2.67;;;1.87;;
3066;SDS011;1544;48.834;9.194;2023-12-14T04:02:26;2.50;;;2.07;;
3066;SDS011;1544;48.834;9.194;2023-12-14T04:05:02;1.90;;;1.57;;
3066;SDS011;1544;48.834;9.194;2023-12-14T04:07:39;2.30;;;2.10;;
3066;SDS011;1544;48.834;9.194;2023-12-14T04:10:16;3.83;;;2.00;;
3066;SDS011;1544;48.834;9.194;2023-12-14T04:12:52;3.00;;;1.70;;
3066;SDS011;1544;48.834;9.194;2023-12-14T04:15:28;2.60;;;2.33;;
3066;SDS011;1544;48.834;9.194;2023-12-14T04:18:06;2.47;;;1.97;;
3066;SDS011;1544;48.834;9.194;2023-12-14T04:20:43;2.10;;;1.90;;
3066;SDS011;1544;48.834;9.194;2023-12-14T04:23:19;6.67;;;2.33;;
3066;SDS011;1544;48.834;9.194;2023-12-14T04:25:55;2.87;;;2.30;;
3066;SDS011;1544;48.834;9.194;2023-12-14T04:28:31;2.20;;;2.00;;
3066;SDS011;1544;48.834;9.194;2023-12-14T04:31:07;3.97;;;2.27;;
3066;SDS011;1544;48.834;9.194;2023-12-14T04:33:43;2.07;;;1.87;;
3066;SDS011;1544;48.834;9.194;2023-12-14T04:36:19;4.27;;;2.07;;
3066;SDS011;1544;48.834;9.194;2023-12-14T04:38:56;3.10;;;2.40;;
3066;SDS011;1544;48.834;9.194;2023-12-14T04:41:32;2.90;;;2.40;;
3066;SDS011;1544;48.834;9.194;2023-12-14T04:44:08;2.57;;;2.37;;
3066;SDS011;1544;48.834;9.194;2023-12-14T04:46:45;2.23;;;2.13;;
3066;SDS011;1544;48.834;9.194;2023-12-14T04:49:21;2.10;;;1.90;;
3066;SDS011;1544;48.834;9.194;2023-12-14T04:51:57;2.30;;;2.10;;
3066;SDS011;1544;48.834;9.194;2023-12-14T04:54:33;3.40;;;2.53;;
3066;SDS011;1544;48.834;9.194;2023-12-14T04:57:13;2.60;;;2.30;;
3066;SDS011;1544;48.834;9.194;2023-12-14T04:59:49;4.97;;;3.93;;
3066;SDS011;1544;48.834;9.194;2023-12-14T05:02:25;5.50;;;5.00;;
3066;SDS011;1544;48.834;9.194;2023-12-14T05:05:01;5.53;;;4.40;;
3066;SDS011;1544;48.834;9.194;2023-12-14T05:07:37;4.17;;;3.53;;
3066;SDS011;1544;48.834;9.194;2023-12-14T05:10:13;5.17;;;3.50;;
3066;SDS011;1544;48.834;9.194;2023-12-14T05:12:49;6.93;;;4.00;;
3066;SDS011;1544;48.834;9.194;2023-12-14T05:15:25;3.73;;;3.33;;
3066;SDS011;1544;48.834;9.194;2023-12-14T05:18:01;5.63;;;3.93;;
3066;SDS011;1544;48.834;9.194;2023-12-14T05:20:38;3.50;;;3.20;;
3066;SDS011;1544;48.834;9.194;2023-12-14T05:23:14;3.50;;;3.10;;
3066;SDS011;1544;48.834;9.194;2023-12-14T05:25:50;4.20;;;3.73;;
3066;SDS011;1544;48.834;9.194;2023-12-14T05:28:26;3.90;;;3.57;;
3066;SDS011;1544;48.834;9.194;2023-12-14T05:31:02;5.67;;;4.43;;
3066;SDS011;1544;48.834;9.194;2023-12-14T05:33:38;4.27;;;3.97;;
3066;SDS011;1544;48.834;9.194;2023-12-14T05:36:15;4.60;;;4.07;;
3066;SDS011;1544;48.834;9.194;2023-12-14T05:38:51;6.07;;;4.10;;
3066;SDS011;1544;48.834;9.194;2023-12-14T05:41:26;4.47;;;4.07;;
3066;SDS011;1544;48.834;9.194;2023-12-14T05:44:02;6.10;;;4.43;;
3066;SDS011;1544;48.834;9.194;2023-12-14T05:46:39;5.90;;;4.00;;
3066;SDS011;1544;48.834;9.194;2023-12-14T05:49:15;4.07;;;3.67;;
3066;SDS011;1544;48.834;9.194;2023-12-14T05:51:51;6.00;;;5.40;;
3066;SDS011;1544;48.834;9.194;2023-12-14T05:54:27;6.20;;;5.40;;
3066;SDS011;1544;48.834;9.194;2023-12-14T05:57:03;5.90;;;4.77;;
3066;SDS011;1544;48.834;9.194;2023-12-14T05:59:39;6.30;;;5.20;;
3066;SDS011;1544;48.834;9.194;2023-12-14T06:02:15;6.53;;;5.63;;
3066;SDS011;1544;48.834;9.194;2023-12-14T06:04:51;6.00;;;4.67;;
3066;SDS011;1544;48.834;9.194;2023-12-14T06:07:28;7.07;;;6.10;;
3066;SDS011;1544;48.834;9.194;2023-12-14T06:10:04;8.53;;;5.80;;
3066;SDS011;1544;48.834;9.194;2023-12-14T06:12:41;6.30;;;5.40;;
3066;SDS011;1544;48.834;9.194;2023-12-14T06:15:16;6.37;;;5.73;;
3066;SDS011;1544;48.834;9.194;2023-12-14T06:17:52;8.40;;;5.40;;
3066;SDS011;1544;48.834;9.194;2023-12-14T06:20:29;7.80;;;6.40;;
3066;SDS011;1544;48.834;9.194;2023-12-14T06:23:04;5.73;;;5.20;;
3066;SDS011;1544;48.834;9.194;2023-12-14T06:25:40;9.13;;;5.70;;
3066;SDS011;1544;48.834;9.194;2023-12-14T06:28:16;8.23;;;5.83;;
3066;SDS011;1544;48.834;9.194;2023-12-14T06:30:53;8.77;;;6.10;;
3066;SDS011;1544;48.834;9.194;2023-12-14T06:33:29;6.90;;;5.90;;
3066;SDS011;1544;48.834;9.194;2023-12-14T06:36:10;5.63;;;5.03;;
3066;SDS011;1544;48.834;9.194;2023-12-14T06:38:52;7.30;;;6.17;;
3066;SDS011;1544;48.834;9.194;2023-12-14T06:41:29;10.43;;;6.93;;
3066;SDS011;1544;48.834;9.194;2023-12-14T06:44:05;7.90;;;6.10;;
3066;SDS011;1544;48.834;9.194;2023-12-14T06:46:41;9.70;;;6.70;;
3066;SDS011;1544;48.834;9.194;2023-12-14T06:49:17;8.80;;;5.80;;
3066;SDS011;1544;48.834;9.194;2023-12-14T06:51:53;6.20;;;5.60;;
3066;SDS011;1544;48.834;9.194;2023-12-14T06:54:29;8.07;;;5.77;;
3066;SDS011;1544;48.834;9.194;2023-12-14T06:57:05;7.37;;;6.57;;
3066;SDS011;1544;48.834;9.194;2023-12-14T06:59:41;6.30;;;5.03;;
3066;SDS011;1544;48.834;9.194;2023-12-14T07:02:17;8.13;;;6.90;;
3066;SDS011;1544;48.834;9.194;2023-12-14T07:04:53;11.53;;;7.10;;
3066;SDS011;1544;48.834;9.194;2023-12-14T07:07:29;8.40;;;7.30;;
3066;SDS011;1544;48.834;9.194;2023-12-14T07:10:05;13.27;;;8.40;;
3066;SDS011;1544;48.834;9.194;2023-12-14T07:12:42;14.03;;;9.57;;
3066;SDS011;1544;48.834;9.194;2023-12-14T07:15:18;14.27;;;8.77;;
3066;SDS011;1544;48.834;9.194;2023-12-14T07:17:54;12.57;;;8.90;;
3066;SDS011;1544;48.834;9.194;2023-12-14T07:20:30;16.63;;;9.00;;
3066;SDS011;1544;48.834;9.194;2023-12-14T07:23:06;12.97;;;8.97;;
3066;SDS011;1544;48.834;9.194;2023-12-14T07:25:42;8.93;;;7.17;;
3066;SDS011;1544;48.834;9.194;2023-12-14T07:28:19;15.73;;;8.63;;
3066;SDS011;1544;48.834;9.194;2023-12-14T07:30:59;11.53;;;7.30;;
3066;SDS011;1544;48.834;9.194;2023-12-14T07:33:37;11.43;;;8.10;;
3066;SDS011;1544;48.834;9.194;2023-12-14T07:36:14;10.60;;;8.80;;
3066;SDS011;1544;48.834;9.194;2023-12-14T07:38:50;12.70;;;7.67;;
3066;SDS011;1544;48.834;9.194;2023-12-14T07:41:30;12.20;;;7.60;;
3066;SDS011;1544;48.834;9.194;2023-12-14T07:44:07;11.97;;;8.50;;
3066;SDS011;1544;48.834;9.194;2023-12-14T07:46:43;12.60;;;8.00;;
3066;SDS011;1544;48.834;9.194;2023-12-14T07:49:19;15.37;;;8.90;;
3066;SDS011;1544;48.834;9.194;2023-12-14T07:51:58;13.17;;;8.17;;
3066;SDS011;1544;48.834;9.194;2023-12-14T07:54:34;15.33;;;10.47;;
3066;SDS011;1544;48.834;9.194;2023-12-14T07:57:11;14.60;;;10.27;;
3066;SDS011;1544;48.834;9.194;2023-12-14T07:59:47;16.47;;;9.60;;
3066;SDS011;1544;48.834;9.194;2023-12-14T08:02:23;17.10;;;10.70;;
3066;SDS011;1544;48.834;9.194;2023-12-14T08:04:59;15.60;;;9.53;;
3066;SDS011;1544;48.834;9.194;2023-12-14T08:07:35;14.93;;;9.60;;
3066;SDS011;1544;48.834;9.194;2023-12-14T08:10:11;17.10;;;10.27;;
3066;SDS011;1544;48.834;9.194;2023-12-14T08:12:47;18.63;;;10.57;;
3066;SDS011;1544;48.834;9.194;2023-12-14T08:15:23;20.00;;;10.60;;
3066;SDS011;1544;48.834;9.194;2023-12-14T08:17:59;20.10;;;10.27;;
3066;SDS011;1544;48.834;9.194;2023-12-14T08:20:35;20.87;;;12.30;;
3066;SDS011;1544;48.834;9.194;2023-12-14T08:23:11;14.60;;;9.80;;
3066;SDS011;1544;48.834;9.194;2023-12-14T08:25:47;17.53;;;10.30;;
3066;SDS011;1544;48.834;9.194;2023-12-14T08:28:23;20.63;;;10.33;;
3066;SDS011;1544;48.834;9.194;2023-12-14T08:31:00;16.90;;;9.30;;
3066;SDS011;1544;48.834;9.194;2023-12-14T08:33:40;13.20;;;8.93;;
3066;SDS011;1544;48.834;9.194;2023-12-14T08:36:21;11.43;;;8.40;;
3066;SDS011;1544;48.834;9.194;2023-12-14T08:38:57;17.23;;;10.77;;
3066;SDS011;1544;48.834;9.194;2023-12-14T08:41:33;14.60;;;9.43;;
3066;SDS011;1544;48.834;9.194;2023-12-14T08:44:09;16.00;;;10.00;;
3066;SDS011;1544;48.834;9.194;2023-12-14T08:46:46;19.67;;;11.53;;
3066;SDS011;1544;48.834;9.194;2023-12-14T08:49:22;20.93;;;12.53;;
3066;SDS011;1544;48.834;9.194;2023-12-14T08:51:59;28.13;;;15.80;;
3066;SDS011;1544;48.834;9.194;2023-12-14T08:54:35;36.23;;;16.90;;
3066;SDS011;1544;48.834;9.194;2023-12-14T08:57:11;27.13;;;14.37;;
3066;SDS011;1544;48.834;9.194;2023-12-14T08:59:47;26.00;;;15.07;;
3066;SDS011;1544;48.834;9.194;2023-12-14T09:02:23;24.70;;;14.93;;
3066;SDS011;1544;48.834;9.194;2023-12-14T09:04:59;27.43;;;15.90;;
3066;SDS011;1544;48.834;9.194;2023-12-14T09:07:35;26.17;;;14.60;;
3066;SDS011;1544;48.834;9.194;2023-12-14T09:10:12;25.90;;;14.40;;
3066;SDS011;1544;48.834;9.194;2023-12-14T09:12:48;25.20;;;13.90;;
3066;SDS011;1544;48.834;9.194;2023-12-14T09:15:24;30.37;;;16.83;;
3066;SDS011;1544;48.834;9.194;2023-12-14T09:18:00;31.87;;;15.70;;
3066;SDS011;1544;48.834;9.194;2023-12-14T09:20:36;27.80;;;14.97;;
3066;SDS011;1544;48.834;9.194;2023-12-14T09:23:12;25.77;;;15.50;;
3066;SDS011;1544;48.834;9.194;2023-12-14T09:25:49;24.63;;;14.07;;
3066;SDS011;1544;48.834;9.194;2023-12-14T09:28:25;24.17;;;15.10;;
3066;SDS011;1544;48.834;9.194;2023-12-14T09:31:02;32.60;;;16.13;;
3066;SDS011;1544;48.834;9.194;2023-12-14T09:33:42;28.77;;;17.87;;
3066;SDS011;1544;48.834;9.194;2023-12-14T09:36:18;31.80;;;17.93;;
3066;SDS011;1544;48.834;9.194;2023-12-14T09:38:54;23.37;;;14.30;;
3066;SDS011;1544;48.834;9.194;2023-12-14T09:41:31;30.27;;;16.33;;
3066;SDS011;1544;48.834;9.194;2023-12-14T09:44:07;33.40;;;19.20;;
3066;SDS011;1544;48.834;9.194;2023-12-14T09:46:43;27.63;;;16.27;;
3066;SDS011;1544;48.834;9.194;2023-12-14T09:49:25;29.50;;;16.40;;
3066;SDS011;1544;48.834;9.194;2023-12-14T09:52:05;32.20;;;17.70;;
3066;SDS011;1544;48.834;9.194;2023-12-14T09:54:41;28.80;;;15.63;;
3066;SDS011;1544;48.834;9.194;2023-12-14T09:57:18;24.37;;;16.40;;
3066;SDS011;1544;48.834;9.194;2023-12-14T09:59:55;29.17;;;15.93;;
3066;SDS011;1544;48.834;9.194;2023-12-14T10:02:31;32.47;;;17.73;;
3066;SDS011;1544;48.834;9.194;2023-12-14T10:05:08;31.87;;;17.80;;
3066;SDS011;1544;48.834;9.194;2023-12-14T10:07:46;28.17;;;17.00;;
3066;SDS011;1544;48.834;9.194;2023-12-14T10:10:28;27.00;;;15.97;;
3066;SDS011;1544;48.834;9.194;2023-12-14T10:13:04;27.13;;;15.27;;
3066;SDS011;1544;48.834;9.194;2023-12-14T10:15:41;23.73;;;14.57;;
3066;SDS011;1544;48.834;9.194;2023-12-14T10:18:22;28.97;;;15.33;;
3066;SDS011;1544;48.834;9.194;2023-12-14T10:21:00;33.40;;;16.90;;
3066;SDS011;1544;48.834;9.194;2023-12-14T10:23:36;25.20;;;14.20;;
3066;SDS011;1544;48.834;9.194;2023-12-14T10:26:12;27.87;;;15.10;;
3066;SDS011;1544;48.834;9.194;2023-12-14T10:28:48;27.43;;;15.37;;
3066;SDS011;1544;48.834;9.194;2023-12-14T10:31:25;19.63;;;12.90;;
3066;SDS011;1544;48.834;9.194;2023-12-14T10:34:03;24.10;;;12.90;;
3066;SDS011;1544;48.834;9.194;2023-12-14T10:36:40;17.63;;;12.27;;
3066;SDS011;1544;48.834;9.194;2023-12-14T10:39:21;13.27;;;10.03;;
3066;SDS011;1544;48.834;9.194;2023-12-14T10:41:58;20.73;;;12.40;;
3066;SDS011;1544;48.834;9.194;2023-12-14T10:44:53;15.90;;;10.90;;
3066;SDS011;1544;48.834;9.194;2023-12-14T10:47:50;19.17;;;11.53;;
3066;SDS011;1544;48.834;9.194;2023-12-14T10:50:29;17.80;;;12.47;;
3066;SDS011;1544;48.834;9.194;2023-12-14T10:53:06;24.27;;;13.70;;
3066;SDS011;1544;48.834;9.194;2023-12-14T10:55:43;18.87;;;12.67;;
3066;SDS011;1544;48.834;9.194;2023-12-14T10:58:20;18.07;;;11.37;;
3066;SDS011;1544;48.834;9.194;2023-12-14T11:00:59;14.30;;;10.07;;
3066;SDS011;1544;48.834;9.194;2023-12-14T11:03:39;20.33;;;13.00;;
3066;SDS011;1544;48.834;9.194;2023-12-14T11:06:20;18.43;;;11.40;;
3066;SDS011;1544;48.834;9.194;2023-12-14T11:09:04;23.57;;;12.10;;
3066;SDS011;1544;48.834;9.194;2023-12-14T11:14:28;14.10;;;9.40;;
3066;SDS011;1544;48.834;9.194;2023-12-14T11:17:08;12.67;;;9.47;;
3066;SDS011;1544;48.834;9.194;2023-12-14T11:19:45;12.03;;;8.47;;
3066;SDS011;1544;48.834;9.194;2023-12-14T11:22:23;16.27;;;9.40;;
3066;SDS011;1544;48.834;9.194;2023-12-14T11:25:02;13.00;;;8.57;;
3066;SDS011;1544;48.834;9.194;2023-12-14T11:27:42;14.20;;;8.53;;
3066;SDS011;1544;48.834;9.194;2023-12-14T11:30:19;11.20;;;8.20;;
3066;SDS011;1544;48.834;9.194;2023-12-14T11:32:56;11.60;;;7.80;;
3066;SDS011;1544;48.834;9.194;2023-12-14T11:35:33;10.43;;;8.03;;
3066;SDS011;1544;48.834;9.194;2023-12-14T11:38:09;9.93;;;7.70;;
3066;SDS011;1544;48.834;9.194;2023-12-14T11:40:49;10.50;;;8.10;;
3066;SDS011;1544;48.834;9.194;2023-12-14T11:43:25;12.23;;;8.07;;
3066;SDS011;1544;48.834;9.194;2023-12-14T11:46:01;12.77;;;9.90;;
3066;SDS011;1544;48.834;9.194;2023-12-14T11:48:37;14.27;;;9.57;;
3066;SDS011;1544;48.834;9.194;2023-12-14T11:51:17;14.30;;;10.43;;
3066;SDS011;1544;48.834;9.194;2023-12-14T11:53:53;19.10;;;10.23;;
3066;SDS011;1544;48.834;9.194;2023-12-14T11:56:30;15.77;;;10.70;;
3066;SDS011;1544;48.834;9.194;2023-12-14T11:59:10;13.00;;;9.60;;
3066;SDS011;1544;48.834;9.194;2023-12-14T12:01:56;11.20;;;8.93;;
3066;SDS011;1544;48.834;9.194;2023-12-14T12:04:36;8.87;;;7.33;;
3066;SDS011;1544;48.834;9.194;2023-12-14T12:07:12;6.50;;;5.10;;
3066;SDS011;1544;48.834;9.194;2023-12-14T12:09:48;4.70;;;4.30;;
3066;SDS011;1544;48.834;9.194;2023-12-14T12:12:24;10.93;;;5.67;;
3066;SDS011;1544;48.834;9.194;2023-12-14T12:15:01;6.00;;;4.77;;
3066;SDS011;1544;48.834;9.194;2023-12-14T12:17:37;8.90;;;4.60;;
3066;SDS011;1544;48.834;9.194;2023-12-14T12:20:15;3.73;;;3.40;;
3066;SDS011;1544;48.834;9.194;2023-12-14T12:22:51;6.10;;;4.27;;
3066;SDS011;1544;48.834;9.194;2023-12-14T12:25:27;5.27;;;4.20;;
3066;SDS011;1544;48.834;9.194;2023-12-14T12:28:03;4.60;;;3.70;;
3066;SDS011;1544;48.834;9.194;2023-12-14T12:30:39;4.20;;;3.43;;
3066;SDS011;1544;48.834;9.194;2023-12-14T12:33:17;4.33;;;3.83;;
3066;SDS011;1544;48.834;9.194;2023-12-14T12:35:53;3.30;;;3.10;;
3066;SDS011;1544;48.834;9.194;2023-12-14T12:38:31;3.90;;;3.50;;
3066;SDS011;1544;48.834;9.194;2023-12-14T12:41:07;4.23;;;3.00;;
3066;SDS011;1544;48.834;9.194;2023-12-14T12:43:43;6.73;;;4.80;;
3066;SDS011;1544;48.834;9.194;2023-12-14T12:46:20;5.10;;;4.50;;
3066;SDS011;1544;48.834;9.194;2023-12-14T12:48:56;5.87;;;4.57;;
3066;SDS011;1544;48.834;9.194;2023-12-14T12:51:33;7.83;;;5.40;;
3066;SDS011;1544;48.834;9.194;2023-12-14T12:54:10;5.70;;;5.20;;
3066;SDS011;1544;48.834;9.194;2023-12-14T12:56:48;7.90;;;5.80;;
3066;SDS011;1544;48.834;9.194;2023-12-14T12:59:24;7.13;;;5.80;;
3066;SDS011;1544;48.834;9.194;2023-12-14T13:02:00;7.87;;;5.30;;
3066;SDS011;1544;48.834;9.194;2023-12-14T13:04:37;8.03;;;6.50;;
3066;SDS011;1544;48.834;9.194;2023-12-14T13:07:14;8.63;;;5.80;;
3066;SDS011;1544;48.834;9.194;2023-12-14T13:09:50;7.03;;;5.20;;
3066;SDS011;1544;48.834;9.194;2023-12-14T13:12:26;4.00;;;3.57;;
3066;SDS011;1544;48.834;9.194;2023-12-14T13:15:02;5.60;;;4.00;;
3066;SDS011;1544;48.834;9.194;2023-12-14T13:17:38;3.00;;;2.80;;
3066;SDS011;1544;48.834;9.194;2023-12-14T13:20:15;4.37;;;3.07;;
3066;SDS011;1544;48.834;9.194;2023-12-14T13:22:51;5.40;;;3.10;;
3066;SDS011;1544;48.834;9.194;2023-12-14T13:25:28;3.83;;;3.47;;
3066;SDS011;1544;48.834;9.194;2023-12-14T13:28:04;3.80;;;3.10;;
3066;SDS011;1544;48.834;9.194;2023-12-14T13:30:40;4.67;;;3.73;;
3066;SDS011;1544;48.834;9.194;2023-12-14T13:33:16;4.50;;;3.10;;
3066;SDS011;1544;48.834;9.194;2023-12-14T13:35:52;4.50;;;4.10;;
3066;SDS011;1544;48.834;9.194;2023-12-14T13:38:28;4.13;;;3.17;;
3066;SDS011;1544;48.834;9.194;2023-12-14T13:41:07;4.97;;;3.60;;
3066;SDS011;1544;48.834;9.194;2023-12-14T13:43:44;3.93;;;2.67;;
3066;SDS011;1544;48.834;9.194;2023-12-14T13:46:21;3.63;;;2.97;;
3066;SDS011;1544;48.834;9.194;2023-12-14T13:48:59;5.20;;;2.73;;
3066;SDS011;1544;48.834;9.194;2023-12-14T13:51:35;5.97;;;3.07;;
3066;SDS011;1544;48.834;9.194;2023-12-14T13:54:11;5.33;;;3.10;;
3066;SDS011;1544;48.834;9.194;2023-12-14T13:56:48;5.50;;;3.60;;
3066;SDS011;1544;48.834;9.194;2023-12-14T13:59:24;4.90;;;3.87;;
3066;SDS011;1544;48.834;9.194;2023-12-14T14:02:00;6.37;;;3.50;;
3066;SDS011;1544;48.834;9.194;2023-12-14T14:04:36;5.57;;;3.83;;
3066;SDS011;1544;48.834;9.194;2023-12-14T14:07:12;7.30;;;4.90;;
3066;SDS011;1544;48.834;9.194;2023-12-14T14:09:48;7.40;;;5.20;;
3066;SDS011;1544;48.834;9.194;2023-12-14T14:12:25;10.03;;;5.63;;
3066;SDS011;1544;48.834;9.194;2023-12-14T14:15:01;8.27;;;5.70;;
3066;SDS011;1544;48.834;9.194;2023-12-14T14:17:37;9.70;;;6.00;;
3066;SDS011;1544;48.834;9.194;2023-12-14T14:20:13;11.40;;;7.90;;
3066;SDS011;1544;48.834;9.194;2023-12-14T14:22:50;11.90;;;7.43;;
3066;SDS011;1544;48.834;9.194;2023-12-14T14:25:26;14.73;;;8.03;;
3066;SDS011;1544;48.834;9.194;2023-12-14T14:28:02;14.07;;;8.77;;
3066;SDS011;1544;48.834;9.194;2023-12-14T14:30:39;14.40;;;10.40;;
3066;SDS011;1544;48.834;9.194;2023-12-14T14:33:15;11.97;;;8.90;;
3066;SDS011;1544;48.834;9.194;2023-12-14T14:35:54;15.73;;;10.30;;
3066;SDS011;1544;48.834;9.194;2023-12-14T14:38:30;16.20;;;10.37;;
3066;SDS011;1544;48.834;9.194;2023-12-14T14:41:07;15.10;;;9.60;;
3066;SDS011;1544;48.834;9.194;2023-12-14T14:43:43;18.03;;;10.73;;
3066;SDS011;1544;48.834;9.194;2023-12-14T14:46:19;19.70;;;10.50;;
3066;SDS011;1544;48.834;9.194;2023-12-14T14:48:55;16.47;;;9.57;;
3066;SDS011;1544;48.834;9.194;2023-12-14T14:51:31;15.33;;;9.77;;
3066;SDS011;1544;48.834;9.194;2023-12-14T14:54:07;18.10;;;11.63;;
3066;SDS011;1544;48.834;9.194;2023-12-14T14:56:43;19.67;;;11.10;;
3066;SDS011;1544;48.834;9.194;2023-12-14T14:59:19;21.57;;;11.10;;
3066;SDS011;1544;48.834;9.194;2023-12-14T15:01:56;23.50;;;11.73;;
3066;SDS011;1544;48.834;9.194;2023-12-14T15:04:34;20.20;;;12.40;;
3066;SDS011;1544;48.834;9.194;2023-12-14T15:07:10;24.27;;;11.87;;
3066;SDS011;1544;48.834;9.194;2023-12-14T15:09:46;23.97;;;13.23;;
3066;SDS011;1544;48.834;9.194;2023-12-14T15:12:22;23.57;;;13.30;;
3066;SDS011;1544;48.834;9.194;2023-12-14T15:14:58;25.93;;;13.10;;
3066;SDS011;1544;48.834;9.194;2023-12-14T15:17:34;26.83;;;14.10;;
3066;SDS011;1544;48.834;9.194;2023-12-14T15:20:10;22.20;;;11.97;;
3066;SDS011;1544;48.834;9.194;2023-12-14T15:22:46;19.47;;;12.70;;
3066;SDS011;1544;48.834;9.194;2023-12-14T15:25:22;22.20;;;12.40;;
3066;SDS011;1544;48.834;9.194;2023-12-14T15:27:59;24.90;;;13.20;;
3066;SDS011;1544;48.834;9.194;2023-12-14T15:30:35;28.10;;;14.70;;
3066;SDS011;1544;48.834;9.194;2023-12-14T15:33:11;22.30;;;13.60;;
3066;SDS011;1544;48.834;9.194;2023-12-14T15:35:47;22.50;;;13.00;;
3066;SDS011;1544;48.834;9.194;2023-12-14T15:38:23;23.77;;;13.53;;
3066;SDS011;1544;48.834;9.194;2023-12-14T15:41:00;30.43;;;16.13;;
3066;SDS011;1544;48.834;9.194;2023-12-14T15:43:36;35.93;;;15.83;;
3066;SDS011;1544;48.834;9.194;2023-12-14T15:46:12;33.50;;;15.60;;
3066;SDS011;1544;48.834;9.194;2023-12-14T15:48:49;29.27;;;15.27;;
3066;SDS011;1544;48.834;9.194;2023-12-14T15:51:25;32.97;;;15.80;;
3066;SDS011;1544;48.834;9.194;2023-12-14T15:54:02;26.20;;;14.10;;
3066;SDS011;1544;48.834;9.194;2023-12-14T15:56:38;33.83;;;15.33;;
3066;SDS011;1544;48.834;9.194;2023-12-14T15:59:14;29.63;;;14.93;;
3066;SDS011;1544;48.834;9.194;2023-12-14T16:01:50;29.73;;;16.13;;
3066;SDS011;1544;48.834;9.194;2023-12-14T16:04:27;23.40;;;13.50;;